sensor_id;sensor_type;location;lat;lon;timestamp;pressure;altitude;pressure_sealevel;temperature;humidity
74435;BME280;62867;52.038;29.256;2023-12-22T04:31:50;988.7;;;5.6;70.4
74435;BME280;62867;52.038;29.256;2023-12-22T04:37:20;988.5;;;5.6;70.6
74435;BME280;62867;52.038;29.256;2023-12-22T04:41:30;988.5;;;5.6;70.7
74435;BME280;62867;52.038;29.256;2023-12-22T04:46:30;988.4;;;5.6;71.1
74435;BME280;62867;52.038;29.256;2023-12-22T04:52:06;988.4;;;5.7;71
74435;BME280;62867;52.038;29.256;2023-12-22T04:56:46;988.4;;;5.7;71
74435;BME280;62867;52.038;29.256;2023-12-22T05:02:20;988.3;;;5.8;71
74435;BME280;62867;52.038;29.256;2023-12-22T05:07:20;988.3;;;5.8;70.9
74435;BME280;62867;52.038;29.256;2023-12-22T05:11:38;988.2;;;5.9;70.8
74435;BME280;62867;52.038;29.256;2023-12-22T05:16:30;988.2;;;5.9;70.9
74435;BME280;62867;52.038;29.256;2023-12-22T05:21:44;988.2;;;5.9;70.5
74435;BME280;62867;52.038;29.256;2023-12-22T05:27:20;988.1;;;5.9;70.6
74435;BME280;62867;52.038;29.256;2023-12-22T05:32:00;988.1;;;5.9;70.6
74435;BME280;62867;52.038;29.256;2023-12-22T05:36:30;988.1;;;5.9;70.7
74435;BME280;62867;52.038;29.256;2023-12-22T05:41:58;988.1;;;5.9;70.8
74435;BME280;62867;52.038;29.256;2023-12-22T05:47:12;988.1;;;5.9;71.1
74435;BME280;62867;52.038;29.256;2023-12-22T05:52:20;988.1;;;6;71.1
74435;BME280;62867;52.038;29.256;2023-12-22T05:57:02;988;;;6;70.9
74435;BME280;62867;52.038;29.256;2023-12-22T06:02:12;988;;;6;71
74435;BME280;62867;52.038;29.256;2023-12-22T06:06:56;988.1;;;6;71
74435;BME280;62867;52.038;29.256;2023-12-22T06:12:12;988.1;;;6;70.9
74435;BME280;62867;52.038;29.256;2023-12-22T06:17:20;988.1;;;5.9;71.1
74435;BME280;62867;52.038;29.256;2023-12-22T06:21:46;988.1;;;5.9;71.1
74435;BME280;62867;52.038;29.256;2023-12-22T06:26:56;988.2;;;6;71
74435;BME280;62867;52.038;29.256;2023-12-22T06:32:06;988.2;;;6;71
74435;BME280;62867;52.038;29.256;2023-12-22T06:36:38;988.1;;;5.9;71
74435;BME280;62867;52.038;29.256;2023-12-22T06:42:20;988.1;;;5.9;71.3
74435;BME280;62867;52.038;29.256;2023-12-22T06:46:54;988;;;6;71.2
74435;BME280;62867;52.038;29.256;2023-12-22T06:51:38;988.1;;;6;71.3
74435;BME280;62867;52.038;29.256;2023-12-22T06:56:38;988.1;;;6.1;71.3
74435;BME280;62867;52.038;29.256;2023-12-22T07:01:30;988.1;;;6.1;71.3
74435;BME280;62867;52.038;29.256;2023-12-22T07:07:20;988.1;;;6.2;71.1
74435;BME280;62867;52.038;29.256;2023-12-22T07:11:44;988;;;6.2;71.1
74435;BME280;62867;52.038;29.256;2023-12-22T07:16:56;988;;;6.2;71
74435;BME280;62867;52.038;29.256;2023-12-22T07:21:38;988;;;6.3;70.8
74435;BME280;62867;52.038;29.256;2023-12-22T07:26:30;988;;;6.3;70.7
74435;BME280;62867;52.038;29.256;2023-12-22T07:32:20;988;;;6.3;70.7
74435;BME280;62867;52.038;29.256;2023-12-22T07:37:02;988;;;6.3;70.5
74435;BME280;62867;52.038;29.256;2023-12-22T07:41:42;988;;;6.4;70.8
74435;BME280;62867;52.038;29.256;2023-12-22T07:46:55;988.2;;;6.4;70.7
74435;BME280;62867;52.038;29.256;2023-12-22T07:51:52;988.2;;;6.4;70.6
74435;BME280;62867;52.038;29.256;2023-12-22T07:57:18;988.1;;;6.4;70.5
74435;BME280;62867;52.038;29.256;2023-12-22T08:01:38;988.2;;;6.4;70.2
74435;BME280;62867;52.038;29.256;2023-12-22T08:06:30;988.2;;;6.4;70.5
74435;BME280;62867;52.038;29.256;2023-12-22T08:12:06;988.2;;;6.5;70.3
74435;BME280;62867;52.038;29.256;2023-12-22T08:16:30;988.2;;;6.4;69.9
74435;BME280;62867;52.038;29.256;2023-12-22T08:22:22;988.2;;;6.4;70
74435;BME280;62867;52.038;29.256;2023-12-22T08:27:00;988.2;;;6.4;69.8
74435;BME280;62867;52.038;29.256;2023-12-22T08:31:30;988.2;;;6.4;70
74435;BME280;62867;52.038;29.256;2023-12-22T08:36:38;988.2;;;6.4;70
74435;BME280;62867;52.038;29.256;2023-12-22T08:42:10;988.2;;;6.4;70.1
74435;BME280;62867;52.038;29.256;2023-12-22T08:47:22;988.2;;;6.4;70.2
74435;BME280;62867;52.038;29.256;2023-12-22T08:51:52;988.2;;;6.4;70.4
74435;BME280;62867;52.038;29.256;2023-12-22T08:56:30;988.2;;;6.5;70.3
74435;BME280;62867;52.038;29.256;2023-12-22T09:02:06;988.2;;;6.5;70.3
74435;BME280;62867;52.038;29.256;2023-12-22T09:07:06;988.2;;;6.5;70.3
74435;BME280;62867;52.038;29.256;2023-12-22T09:12:20;988.2;;;6.5;70.2
74435;BME280;62867;52.038;29.256;2023-12-22T09:17:02;988.2;;;6.6;70
74435;BME280;62867;52.038;29.256;2023-12-22T09:21:50;988.2;;;6.6;69.8
74435;BME280;62867;52.038;29.256;2023-12-22T09:26:48;988.2;;;6.7;69.8
74435;BME280;62867;52.038;29.256;2023-12-22T09:31:30;988.1;;;6.8;69.8
74435;BME280;62867;52.038;29.256;2023-12-22T09:37:02;988;;;6.8;69.7
74435;BME280;62867;52.038;29.256;2023-12-22T09:41:30;988;;;6.9;69.8
74435;BME280;62867;52.038;29.256;2023-12-22T09:46:56;988;;;7;69.8
74435;BME280;62867;52.038;29.256;2023-12-22T09:52:04;988;;;7.1;69.8
74435;BME280;62867;52.038;29.256;2023-12-22T09:56:48;988;;;7.1;69.4
74435;BME280;62867;52.038;29.256;2023-12-22T10:02:20;988.1;;;7.1;69.5
74435;BME280;62867;52.038;29.256;2023-12-22T10:07:02;988;;;7.2;69.5
74435;BME280;62867;52.038;29.256;2023-12-22T10:12:20;988.1;;;7.2;69.3
74435;BME280;62867;52.038;29.256;2023-12-22T10:16:56;988;;;7.2;69.1
74435;BME280;62867;52.038;29.256;2023-12-22T10:21:38;988;;;7.3;68.9
74435;BME280;62867;52.038;29.256;2023-12-22T10:27:20;988;;;7.2;68.7
74435;BME280;62867;52.038;29.256;2023-12-22T10:31:39;988;;;7.2;68.9
74435;BME280;62867;52.038;29.256;2023-12-22T10:36:30;988;;;7.2;69.2
74435;BME280;62867;52.038;29.256;2023-12-22T10:42:14;988;;;7.3;69.2
74435;BME280;62867;52.038;29.256;2023-12-22T10:46:36;988;;;7.4;69
74435;BME280;62867;52.038;29.256;2023-12-22T10:52:20;987.9;;;7.5;69
74435;BME280;62867;52.038;29.256;2023-12-22T10:57:02;987.9;;;7.6;68.8
74435;BME280;62867;52.038;29.256;2023-12-22T11:01:30;987.9;;;7.6;68.8
74435;BME280;62867;52.038;29.256;2023-12-22T11:06:38;987.9;;;7.6;68.8
74435;BME280;62867;52.038;29.256;2023-12-22T11:11:44;987.8;;;7.6;68.6
74435;BME280;62867;52.038;29.256;2023-12-22T11:17:22;987.8;;;7.6;68.3
74435;BME280;62867;52.038;29.256;2023-12-22T11:21:38;987.9;;;7.6;68.4
74435;BME280;62867;52.038;29.256;2023-12-22T11:26:48;987.9;;;7.7;68.2
74435;BME280;62867;52.038;29.256;2023-12-22T11:32:06;987.9;;;7.7;68.2
74435;BME280;62867;52.038;29.256;2023-12-22T11:36:38;988;;;7.7;68.4
74435;BME280;62867;52.038;29.256;2023-12-22T11:42:08;988;;;7.8;68.4
74435;BME280;62867;52.038;29.256;2023-12-22T11:47:04;988.1;;;7.8;68.5
74435;BME280;62867;52.038;29.256;2023-12-22T11:51:31;988.1;;;7.8;68.3
74435;BME280;62867;52.038;29.256;2023-12-22T11:57:29;988.1;;;7.8;68.3
74435;BME280;62867;52.038;29.256;2023-12-22T12:02:12;988.2;;;7.8;68.3
74435;BME280;62867;52.038;29.256;2023-12-22T12:07:51;988.2;;;7.7;68.2
74435;BME280;62867;52.038;29.256;2023-12-22T12:12:08;988.1;;;7.7;68
74435;BME280;62867;52.038;29.256;2023-12-22T12:16:48;988;;;7.7;68
74435;BME280;62867;52.038;29.256;2023-12-22T12:22:06;988;;;7.7;67.9
74435;BME280;62867;52.038;29.256;2023-12-22T12:26:54;988.1;;;7.6;67.8
74435;BME280;62867;52.038;29.256;2023-12-22T12:32:03;988.1;;;7.6;68.3
74435;BME280;62867;52.038;29.256;2023-12-22T12:36:46;988;;;7.7;68.2
74435;BME280;62867;52.038;29.256;2023-12-22T12:41:30;988;;;7.7;68.1
74435;BME280;62867;52.038;29.256;2023-12-22T12:47:11;988.1;;;7.7;68.1
74435;BME280;62867;52.038;29.256;2023-12-22T12:51:50;988.1;;;7.7;68.2
74435;BME280;62867;52.038;29.256;2023-12-22T12:57:18;988.2;;;7.7;68.3
74435;BME280;62867;52.038;29.256;2023-12-22T13:01:38;988.2;;;7.7;68.2
74435;BME280;62867;52.038;29.256;2023-12-22T13:07:06;988.3;;;7.6;68
74435;BME280;62867;52.038;29.256;2023-12-22T13:11:46;988.4;;;7.6;68.1
74435;BME280;62867;52.038;29.256;2023-12-22T13:16:58;988.5;;;7.5;67.9
74435;BME280;62867;52.038;29.256;2023-12-22T13:22:18;988.5;;;7.4;68.1
74435;BME280;62867;52.038;29.256;2023-12-22T13:27:02;988.5;;;7.4;68.2
74435;BME280;62867;52.038;29.256;2023-12-22T13:31:48;988.5;;;7.5;68.2
74435;BME280;62867;52.038;29.256;2023-12-22T13:36:46;988.5;;;7.4;68
74435;BME280;62867;52.038;29.256;2023-12-22T13:41:38;988.4;;;7.3;68
74435;BME280;62867;52.038;29.256;2023-12-22T13:47:18;988.4;;;7.3;68
74435;BME280;62867;52.038;29.256;2023-12-22T13:51:46;988.4;;;7.2;68.1
74435;BME280;62867;52.038;29.256;2023-12-22T13:56:54;988.3;;;7.2;68.4
74435;BME280;62867;52.038;29.256;2023-12-22T14:02:04;988.3;;;7.1;68
74435;BME280;62867;52.038;29.256;2023-12-22T14:07:02;988.3;;;7;67.8
74435;BME280;62867;52.038;29.256;2023-12-22T14:12:18;988.3;;;6.9;68.1
74435;BME280;62867;52.038;29.256;2023-12-22T14:17:00;988.3;;;6.8;68.1
74435;BME280;62867;52.038;29.256;2023-12-22T14:21:38;988.4;;;6.7;68.3
74435;BME280;62867;52.038;29.256;2023-12-22T14:26:56;988.4;;;6.7;68.4
74435;BME280;62867;52.038;29.256;2023-12-22T14:31:38;988.4;;;6.6;68.5
74435;BME280;62867;52.038;29.256;2023-12-22T14:37:22;988.4;;;6.6;68.8
74435;BME280;62867;52.038;29.256;2023-12-22T14:41:30;988.4;;;6.5;68.7
74435;BME280;62867;52.038;29.256;2023-12-22T14:46:56;988.4;;;6.5;68.5
74435;BME280;62867;52.038;29.256;2023-12-22T14:52:06;988.4;;;6.4;68.5
74435;BME280;62867;52.038;29.256;2023-12-22T14:56:44;988.5;;;6.4;68.5
74435;BME280;62867;52.038;29.256;2023-12-22T15:02:22;988.5;;;6.3;68.6
74435;BME280;62867;52.038;29.256;2023-12-22T15:07:00;988.5;;;6.3;68.5
74435;BME280;62867;52.038;29.256;2023-12-22T15:11:50;988.4;;;6.3;68.6
74435;BME280;62867;52.038;29.256;2023-12-22T15:17:22;988.5;;;6.2;68.7
74435;BME280;62867;52.038;29.256;2023-12-22T15:21:54;988.6;;;6.3;68.9
74435;BME280;62867;52.038;29.256;2023-12-22T15:27:20;988.6;;;6.3;69.1
74435;BME280;62867;52.038;29.256;2023-12-22T15:31:46;988.5;;;6.3;68.9
74435;BME280;62867;52.038;29.256;2023-12-22T15:36:54;988.5;;;6.2;68.8
74435;BME280;62867;52.038;29.256;2023-12-22T15:42:04;988.5;;;6.2;68.9
74435;BME280;62867;52.038;29.256;2023-12-22T15:47:20;988.5;;;6.1;68.8
74435;BME280;62867;52.038;29.256;2023-12-22T15:52:20;988.5;;;6.1;68.6
74435;BME280;62867;52.038;29.256;2023-12-22T15:57:00;988.5;;;6.1;68.5
74435;BME280;62867;52.038;29.256;2023-12-22T16:01:42;988.6;;;6.1;68.4
74435;BME280;62867;52.038;29.256;2023-12-22T16:07:06;988.7;;;6;68.3
74435;BME280;62867;52.038;29.256;2023-12-22T16:11:42;988.7;;;6;68.2
74435;BME280;62867;52.038;29.256;2023-12-22T16:17:20;988.8;;;6;68.2
74435;BME280;62867;52.038;29.256;2023-12-22T16:21:50;988.9;;;5.8;68.2
74435;BME280;62867;52.038;29.256;2023-12-22T16:26:54;988.9;;;5.7;68.6
74435;BME280;62867;52.038;29.256;2023-12-22T16:32:04;988.9;;;5.6;68.7
74435;BME280;62867;52.038;29.256;2023-12-22T16:37:00;988.8;;;5.6;68.7
74435;BME280;62867;52.038;29.256;2023-12-22T16:42:22;988.9;;;5.5;68.5
74435;BME280;62867;52.038;29.256;2023-12-22T16:46:58;988.9;;;5.5;68.8
74435;BME280;62867;52.038;29.256;2023-12-22T16:51:28;988.9;;;5.5;68.6
74435;BME280;62867;52.038;29.256;2023-12-22T16:56:38;989;;;5.4;68.4
74435;BME280;62867;52.038;29.256;2023-12-22T17:01:46;988.9;;;5.3;68.3
74435;BME280;62867;52.038;29.256;2023-12-22T17:07:22;988.9;;;5.2;68.3
74435;BME280;62867;52.038;29.256;2023-12-22T17:12:12;988.9;;;5.1;68.2
74435;BME280;62867;52.038;29.256;2023-12-22T17:16:48;988.9;;;5;68.1
74435;BME280;62867;52.038;29.256;2023-12-22T17:22:12;988.9;;;4.9;68.4
74435;BME280;62867;52.038;29.256;2023-12-22T17:26:54;988.9;;;4.8;68.7
74435;BME280;62867;52.038;29.256;2023-12-22T17:31:48;988.9;;;4.7;68.8
74435;BME280;62867;52.038;29.256;2023-12-22T17:36:48;988.9;;;4.6;68.9
74435;BME280;62867;52.038;29.256;2023-12-22T17:41:36;988.9;;;4.5;68.9
74435;BME280;62867;52.038;29.256;2023-12-22T17:46:30;988.9;;;4.4;69
74435;BME280;62867;52.038;29.256;2023-12-22T17:52:06;988.9;;;4.4;68.9
74435;BME280;62867;52.038;29.256;2023-12-22T17:56:54;988.9;;;4.3;68.7
74435;BME280;62867;52.038;29.256;2023-12-22T18:01:56;988.8;;;4.2;68.7
74435;BME280;62867;52.038;29.256;2023-12-22T18:07:02;988.8;;;4.1;68.7
74435;BME280;62867;52.038;29.256;2023-12-22T18:12:12;988.6;;;4;68.7
74435;BME280;62867;52.038;29.256;2023-12-22T18:17:22;988.6;;;4;68.7
74435;BME280;62867;52.038;29.256;2023-12-22T18:22:06;988.6;;;3.9;68.9
74435;BME280;62867;52.038;29.256;2023-12-22T18:26:46;988.5;;;3.9;68.8
74435;BME280;62867;52.038;29.256;2023-12-22T18:31:38;988.4;;;3.9;68.9
74435;BME280;62867;52.038;29.256;2023-12-22T18:37:12;988.4;;;3.9;68.9
74435;BME280;62867;52.038;29.256;2023-12-22T18:42:20;988.5;;;3.8;68.9
74435;BME280;62867;52.038;29.256;2023-12-22T18:46:40;988.5;;;3.8;68.9
74435;BME280;62867;52.038;29.256;2023-12-22T18:52:08;988.5;;;3.8;68.8
74435;BME280;62867;52.038;29.256;2023-12-22T18:56:56;988.5;;;3.7;68.8
74435;BME280;62867;52.038;29.256;2023-12-22T19:02:10;988.5;;;3.7;68.6
74435;BME280;62867;52.038;29.256;2023-12-22T19:07:20;988.5;;;3.6;68.6
74435;BME280;62867;52.038;29.256;2023-12-22T19:11:30;988.4;;;3.6;68.6
74435;BME280;62867;52.038;29.256;2023-12-22T19:17:12;988.3;;;3.5;68.6
74435;BME280;62867;52.038;29.256;2023-12-22T19:21:36;988.4;;;3.5;68.8
74435;BME280;62867;52.038;29.256;2023-12-22T19:26:46;988.4;;;3.5;68.9
74435;BME280;62867;52.038;29.256;2023-12-22T19:32:20;988.3;;;3.5;68.7
74435;BME280;62867;52.038;29.256;2023-12-22T19:36:30;988.2;;;3.5;68.7
74435;BME280;62867;52.038;29.256;2023-12-22T19:41:58;988.1;;;3.5;68.7
74435;BME280;62867;52.038;29.256;2023-12-22T19:47:04;988.1;;;3.5;68.7
74435;BME280;62867;52.038;29.256;2023-12-22T19:52:10;988.1;;;3.4;68.6
74435;BME280;62867;52.038;29.256;2023-12-22T19:57:20;988.1;;;3.3;68.6
74435;BME280;62867;52.038;29.256;2023-12-22T20:01:48;988.1;;;3.2;68.5
74435;BME280;62867;52.038;29.256;2023-12-22T20:06:36;988.1;;;3.2;68.5
74435;BME280;62867;52.038;29.256;2023-12-22T20:11:42;988;;;3.1;68.7
74435;BME280;62867;52.038;29.256;2023-12-22T20:16:56;987.9;;;3.1;68.8
74435;BME280;62867;52.038;29.256;2023-12-22T20:22:12;987.9;;;3;69
74435;BME280;62867;52.038;29.256;2023-12-22T20:26:36;987.9;;;3.1;69.2
74435;BME280;62867;52.038;29.256;2023-12-22T20:32:10;987.9;;;3.1;69.4
74435;BME280;62867;52.038;29.256;2023-12-22T20:36:54;987.9;;;3.1;69.3
74435;BME280;62867;52.038;29.256;2023-12-22T20:41:30;987.8;;;3.1;69.1
74435;BME280;62867;52.038;29.256;2023-12-22T20:47:16;987.8;;;3.1;69
74435;BME280;62867;52.038;29.256;2023-12-22T20:51:56;987.8;;;3.1;69
74435;BME280;62867;52.038;29.256;2023-12-22T20:56:28;987.8;;;3.1;68.9
74435;BME280;62867;52.038;29.256;2023-12-22T21:02:00;987.8;;;3.1;68.8
74435;BME280;62867;52.038;29.256;2023-12-22T21:06:44;987.8;;;3;68.7
74435;BME280;62867;52.038;29.256;2023-12-22T21:12:18;987.7;;;3;68.8
74435;BME280;62867;52.038;29.256;2023-12-22T21:16:52;987.7;;;3;68.8
74435;BME280;62867;52.038;29.256;2023-12-22T21:22:11;987.7;;;3;68.9
74435;BME280;62867;52.038;29.256;2023-12-22T21:26:36;987.7;;;3;68.8
74435;BME280;62867;52.038;29.256;2023-12-22T21:31:56;987.6;;;3;68.7
74435;BME280;62867;52.038;29.256;2023-12-22T21:37:16;987.5;;;3;69
74435;BME280;62867;52.038;29.256;2023-12-22T21:41:28;987.4;;;2.9;68.9
74435;BME280;62867;52.038;29.256;2023-12-22T21:46:52;987.4;;;2.9;68.9
74435;BME280;62867;52.038;29.256;2023-12-22T21:52:02;987.4;;;2.9;68.8
74435;BME280;62867;52.038;29.256;2023-12-22T21:56:46;987.3;;;2.8;68.8
74435;BME280;62867;52.038;29.256;2023-12-22T22:02:18;987.2;;;2.8;68.8
74435;BME280;62867;52.038;29.256;2023-12-22T22:07:00;987.1;;;2.8;68.8
74435;BME280;62867;52.038;29.256;2023-12-22T22:12:08;987.1;;;2.7;68.8
74435;BME280;62867;52.038;29.256;2023-12-22T22:16:54;987.1;;;2.7;69
74435;BME280;62867;52.038;29.256;2023-12-22T22:22:10;987.2;;;2.7;69
74435;BME280;62867;52.038;29.256;2023-12-22T22:27:20;987.1;;;2.7;69.1
74435;BME280;62867;52.038;29.256;2023-12-22T22:32:00;987.1;;;2.7;69.1
74435;BME280;62867;52.038;29.256;2023-12-22T22:37:10;987.1;;;2.7;69.2
74435;BME280;62867;52.038;29.256;2023-12-22T22:41:40;987.1;;;2.7;69.1
74435;BME280;62867;52.038;29.256;2023-12-22T22:46:30;987.1;;;2.8;69
74435;BME280;62867;52.038;29.256;2023-12-22T22:52:20;987.1;;;2.9;69
74435;BME280;62867;52.038;29.256;2023-12-22T22:56:52;987.1;;;3;68.8
74435;BME280;62867;52.038;29.256;2023-12-22T23:02:10;987.1;;;3;68.7
74435;BME280;62867;52.038;29.256;2023-12-22T23:06:54;987;;;3.1;68.4
74435;BME280;62867;52.038;29.256;2023-12-22T23:12:10;987;;;3.2;68.3
74435;BME280;62867;52.038;29.256;2023-12-22T23:17:18;987;;;3.2;68.3
74435;BME280;62867;52.038;29.256;2023-12-22T23:21:28;987;;;3.2;68.3
74435;BME280;62867;52.038;29.256;2023-12-22T23:26:44;987;;;3.3;68.5
74435;BME280;62867;52.038;29.256;2023-12-22T23:32:14;986.9;;;3.3;68.2
74435;BME280;62867;52.038;29.256;2023-12-22T23:36:28;986.8;;;3.3;68.4
74435;BME280;62867;52.038;29.256;2023-12-22T23:42:16;986.8;;;3.4;68.4
74435;BME280;62867;52.038;29.256;2023-12-22T23:46:58;986.8;;;3.4;68.4
74435;BME280;62867;52.038;29.256;2023-12-22T23:52:12;986.8;;;3.5;68.3
74435;BME280;62867;52.038;29.256;2023-12-22T23:56:48;986.7;;;3.5;68
